EFKTENAT

Guest
Details From EFKT - Kittila
To ENAT - ALTA
Flight Number -
Tags generated
Created
Modified
Stats Distance 145 nm / 269 km
Max Altitude 12,700 ft / 3,871 m
Waypoints 4
Social Downloads 0
Likes 0
Share VATSIM

Download

Looking for another format? Having issues loading an existing format? Contact us
Advertisement - Login to hide

Notes

Basic altitude profile: - Ascent Rate: 2500ft/min - Ascent Speed: 250kts - Cruise Altitude: 15000ft - Cruise Speed: 420kts - Descent Rate: 1500ft/min - Descent Speed: 250kts Options: - Use NATs: yes - Use PACOTS: yes - Use low airways: yes - Use high airways: yes

Route

EFKT ANELO Y78 LIMRO ENAT

ID Type Via Altitude Latitude Longitude Leg Dist Tot Dist Heading (true) Name
O EFKT APT - 0 ft / 0 m 67.70102˚ 24.84685˚ - 0 nm - Kittila
ANELO FIX - 7,700 ft / 2,347 m 67.97833˚ 24.23917˚ 21 nm 21 nm 321° / 320° -
LIMRO FIX Y78 (AWY-LO) 12,700 ft / 3,871 m 68.20639˚ 23.80361˚ 16 nm 38 nm 325° / 324° -
O ENAT APT - 0 ft / 0 m 69.97735˚ 23.36543˚ 106 nm 145 nm 355° / 355° ALTA

Altitude Profile

Advertisement - Login to hide

EFKT

Details ICAO EFKT (KTT)
Name Kittila
Region Finland
Timezone Europe/Helsinki (UTC+2.0)
Stats Elevation 644 ft / 196 m (AMSL)
Location 67.701022° 24.846849°
Runways 1
Magnetic Variation 11.423° E

METAR

EFKT 160920Z AUTO 13005KT 9999 FEW007 OVC053 M08/M09 Q0999

Decode

TAF

Not found

Departure Runways

ID Width Length Bearing (true) Bearing (mag) Surface Threshold Offset Overrun Length
16 148 ft / 45 m 8,180 ft / 2,493 m 166.12° 154.70° Asphalt 0 ft / 0 m 0 ft / 0 m
34 148 ft / 45 m 8,180 ft / 2,493 m 346.13° 334.71° Asphalt 0 ft / 0 m 0 ft / 0 m

ENAT

Details ICAO ENAT (ALF)
Name ALTA
Region Norway
Timezone Europe/Oslo (UTC+1.0)
Stats Elevation 9 ft / 3 m (AMSL)
Location 69.977351° 23.365433°
Runways 1
Magnetic Variation 11.446° E

METAR

ENAT 160850Z 17006KT CAVOK M07/M10 Q0997 RMK WIND 700FT 18010KT

Decode

TAF

Not found

Destination Runways

ID Width Length Bearing (true) Bearing (mag) Surface Threshold Offset Overrun Length
11 131 ft / 40 m 7,140 ft / 2,176 m 121.18° 109.73° Asphalt 674 ft / 205 m 0 ft / 0 m
29 131 ft / 40 m 7,140 ft / 2,176 m 301.22° 289.77° Asphalt 418 ft / 127 m 0 ft / 0 m

Approach Navaids

Runway Type Ident Frequency Range Bearing (true) Bearing (mag) Slope Elevation
11 Localiser AT 108.90 MHz 18 nm / 33 km 121.22° 109.78° - 9 ft / 3 m (AMSL)
11 Glidescope AT 108.90 MHz 10 nm / 19 km 121.20° 109.76° 3.70° 10 ft / 3 m (AMSL)